Time;durP1;ratioP1;P1;durP2;ratioP2;P2;SDS_P1;SDS_P2;PMS_P1;PMS_P2;Temp;Humidity;BMP_temperature;BMP_pressure;BME280_temperature;BME280_humidity;BME280_pressure;Samples;Min_cycle;Max_cycle;Signal;HPM_P1;HPM_P2
2022/11/01 00:07:35;;;;;;;9.45;5.15;;;;;;;11.53;100.00;97781.22;18569088;32;20453;-62
2022/11/01 00:17:38;;;;;;;6.57;4.32;;;;;;;11.58;100.00;97759.53;18568286;32;20464;-62
2022/11/01 00:27:41;;;;;;;12.20;5.55;;;;;;;11.63;100.00;97762.22;18568332;32;20079;-61
2022/11/01 00:37:43;;;;;;;7.70;4.68;;;;;;;11.70;100.00;97721.31;18566797;32;20108;-61
2022/11/01 00:47:46;;;;;;;6.75;4.90;;;;;;;11.74;100.00;97735.91;18552218;32;20471;-62
2022/11/01 00:57:49;;;;;;;7.62;4.75;;;;;;;11.78;100.00;97731.56;18538400;32;20053;-62
2022/11/01 01:07:51;;;;;;;6.07;4.25;;;;;;;11.79;100.00;97754.88;18565629;32;20371;-62
2022/11/01 01:17:54;;;;;;;7.93;4.95;;;;;;;11.82;100.00;97757.03;18564822;32;20075;-62
2022/11/01 01:27:56;;;;;;;11.32;4.93;;;;;;;11.82;100.00;97759.72;18564410;32;20087;-62
2022/11/01 01:37:58;;;;;;;6.53;4.72;;;;;;;11.84;100.00;97854.28;18556709;32;20100;-62
2022/11/01 01:48:09;;;;;;;8.93;4.68;;;;;;;11.94;100.00;97880.56;18562828;32;20104;-62
2022/11/01 01:58:14;;;;;;;5.37;3.90;;;;;;;12.08;100.00;97876.22;18562039;32;20053;-62
2022/11/01 02:08:26;;;;;;;6.47;3.90;;;;;;;12.13;100.00;97881.63;18547506;32;20069;-62
2022/11/01 02:19:08;;;;;;;5.47;2.90;;;;;;;12.14;100.00;97864.28;18561454;32;20083;-62
2022/11/01 02:29:19;;;;;;;8.88;2.75;;;;;;;12.26;100.00;97872.09;18545311;32;20079;-62
2022/11/01 02:39:29;;;;;;;5.87;2.37;;;;;;;12.53;100.00;97877.16;18558853;32;20387;-62
2022/11/01 02:49:36;;;;;;;3.17;1.85;;;;;;;12.62;100.00;97863.03;18560296;32;20093;-62
2022/11/01 02:59:47;;;;;;;3.87;1.70;;;;;;;12.68;100.00;97851.87;18559401;32;20057;-62
2022/11/01 03:09:50;;;;;;;4.20;2.15;;;;;;;12.68;100.00;97853.78;18559816;32;20063;-62
2022/11/01 03:20:07;;;;;;;4.28;2.67;;;;;;;12.69;100.00;97863.56;18553187;32;20141;-62
2022/11/01 03:30:13;;;;;;;5.47;3.42;;;;;;;12.68;100.00;97886.34;18571230;32;20102;-62
2022/11/01 03:40:17;;;;;;;5.60;3.83;;;;;;;12.64;100.00;97896.91;18556636;32;20053;-62
2022/11/01 03:50:25;;;;;;;5.55;3.40;;;;;;;12.59;100.00;97924.06;18430776;32;20498;-62
2022/11/01 04:00:30;;;;;;;6.72;4.00;;;;;;;12.58;100.00;97955.00;18430184;32;20081;-62
2022/11/01 04:10:33;;;;;;;12.70;4.05;;;;;;;12.51;100.00;97990.56;18417198;32;20065;-62
2022/11/01 04:20:35;;;;;;;8.10;4.62;;;;;;;12.48;100.00;98025.53;18427980;32;20063;-62
2022/11/01 04:30:38;;;;;;;4.12;1.75;;;;;;;12.61;100.00;98006.00;18502211;32;20377;-62
2022/11/01 04:40:42;;;;;;;1.52;0.60;;;;;;;12.58;100.00;98028.25;18501901;32;20113;-62
2022/11/01 04:50:46;;;;;;;1.08;0.50;;;;;;;12.64;100.00;98001.91;18501442;32;20101;-61
2022/11/01 05:00:48;;;;;;;1.70;0.57;;;;;;;12.64;100.00;98037.19;18499791;32;20048;-62
2022/11/01 05:10:53;;;;;;;1.08;0.50;;;;;;;12.64;100.00;98045.31;18500479;32;20057;-62
2022/11/01 05:20:56;;;;;;;2.75;0.60;;;;;;;12.65;100.00;98033.41;18500023;32;20064;-61
2022/11/01 05:30:59;;;;;;;7.17;0.60;;;;;;;12.58;100.00;98033.69;18497884;32;20048;-61
2022/11/01 05:41:03;;;;;;;1.80;0.52;;;;;;;12.51;100.00;98003.28;18496734;32;20102;-62
2022/11/01 05:51:06;;;;;;;0.80;0.20;;;;;;;12.44;100.00;98006.28;18496549;32;20045;-62
2022/11/01 06:01:09;;;;;;;2.03;0.60;;;;;;;12.35;100.00;98038.56;18423155;32;20057;-62
2022/11/01 06:11:11;;;;;;;3.72;0.50;;;;;;;12.29;100.00;98052.41;18409503;32;20473;-62
2022/11/01 06:21:15;;;;;;;3.42;0.50;;;;;;;12.25;100.00;98049.44;18422007;32;20095;-62
2022/11/01 06:31:18;;;;;;;1.70;0.40;;;;;;;12.24;100.00;98074.91;18518643;32;20060;-62
2022/11/01 06:41:22;;;;;;;2.70;0.43;;;;;;;12.23;100.00;98094.97;18546516;32;20053;-62
2022/11/01 06:51:26;;;;;;;1.75;0.30;;;;;;;12.24;100.00;98090.34;18550033;31;20133;-62
2022/11/01 07:01:29;;;;;;;0.37;0.30;;;;;;;12.26;100.00;98105.28;18566956;32;20105;-62
2022/11/01 07:11:33;;;;;;;1.92;0.60;;;;;;;12.33;100.00;98126.69;18572377;32;20104;-62
2022/11/01 07:21:37;;;;;;;1.17;0.40;;;;;;;12.41;100.00;98131.59;18571899;32;20069;-61
2022/11/01 07:31:40;;;;;;;1.48;0.55;;;;;;;12.53;100.00;98134.84;18571417;32;20052;-61
2022/11/01 07:41:57;;;;;;;;;;;;;;;;;;;;;
2022/11/01 07:52:57;;;;;;;0.77;0.47;;;;;;;12.82;100.00;98142.41;18563024;32;20042;-62
2022/11/01 08:03:03;;;;;;;1.05;0.35;;;;;;;13.18;100.00;98139.66;18569250;32;20064;-62
2022/11/01 08:13:15;;;;;;;1.08;0.40;;;;;;;13.48;100.00;98148.00;18568721;32;20357;-62
2022/11/01 08:23:19;;;;;;;0.70;0.35;;;;;;;13.64;100.00;98152.31;18554182;32;20067;-62
2022/11/01 08:33:22;;;;;;;0.53;0.30;;;;;;;13.76;100.00;98179.16;18553624;32;20050;-62
2022/11/01 08:43:44;;;;;;;1.27;0.40;;;;;;;13.93;100.00;98172.56;18566505;32;20147;-62
2022/11/01 08:53:49;;;;;;;0.80;0.30;;;;;;;14.24;100.00;98178.66;18566306;31;20093;-62
2022/11/01 09:03:57;;;;;;;0.70;0.37;;;;;;;14.68;100.00;98190.62;18539166;32;20109;-62
2022/11/01 09:14:03;;;;;;;2.08;0.47;;;;;;;15.03;100.00;98189.53;18564472;32;20428;-62
2022/11/01 09:24:16;;;;;;;1.33;0.55;;;;;;;15.49;100.00;98204.56;18564350;32;20064;-62
2022/11/01 09:45:38;;;;;;;1.25;0.62;;;;;;;16.09;100.00;98217.81;18562806;32;20079;-62
2022/11/01 09:56:38;;;;;;;2.33;0.80;;;;;;;16.27;100.00;98218.94;18562121;32;20045;-62
2022/11/01 10:07:25;;;;;;;1.10;0.70;;;;;;;16.48;100.00;98224.09;18561869;32;20075;-63
2022/11/01 10:17:49;;;;;;;2.60;0.77;;;;;;;16.83;100.00;98249.25;18231473;32;20107;-62
2022/11/01 10:28:06;;;;;;;2.30;0.80;;;;;;;16.70;100.00;98250.00;18218334;32;20127;-62
2022/11/01 10:39:14;;;;;;;4.40;0.70;;;;;;;16.47;100.00;98266.16;18230961;32;20078;-63
2022/11/01 10:49:45;;;;;;;2.67;0.50;;;;;;;16.41;100.00;98267.34;18369422;32;20048;-62
2022/11/01 11:00:20;;;;;;;1.27;0.52;;;;;;;16.29;100.00;98261.50;18559691;32;20058;-62
2022/11/01 11:10:27;;;;;;;2.33;0.75;;;;;;;16.43;100.00;98256.91;18559383;32;20065;-62
2022/11/01 11:20:39;;;;;;;3.30;1.12;;;;;;;16.63;99.26;98244.91;18545447;32;20061;-63
2022/11/01 11:30:45;;;;;;;3.45;1.10;;;;;;;16.75;98.79;98234.34;18552333;32;20052;-62
2022/11/01 11:40:51;;;;;;;1.00;0.55;;;;;;;16.52;98.33;98227.88;18566233;32;20104;-63
2022/11/01 11:51:04;;;;;;;5.25;0.70;;;;;;;16.36;99.56;98215.53;18570823;32;20044;-62
2022/11/01 12:01:12;;;;;;;1.50;0.70;;;;;;;16.47;100.00;98213.47;18504122;32;20449;-62
2022/11/01 12:11:19;;;;;;;3.45;1.00;;;;;;;16.69;92.83;98227.34;18504108;32;20102;-62
2022/11/01 12:21:42;;;;;;;2.33;0.73;;;;;;;17.09;93.62;98241.50;18503175;32;20101;-63
2022/11/01 12:31:53;;;;;;;2.75;0.93;;;;;;;17.33;91.01;98239.72;18503396;32;20059;-63
2022/11/01 12:42:03;;;;;;;3.00;1.33;;;;;;;17.12;82.87;98242.81;18502297;32;20076;-62
2022/11/01 12:52:20;;;;;;;2.65;0.80;;;;;;;16.47;85.40;98238.06;18505115;32;20044;-62
2022/11/01 13:02:47;;;;;;;3.25;1.00;;;;;;;15.98;89.35;98235.41;18565757;32;20441;-62
2022/11/01 13:13:32;;;;;;;5.35;1.17;;;;;;;15.87;92.78;98234.72;18565026;32;20079;-63
2022/11/01 13:23:56;;;;;;;3.20;1.10;;;;;;;16.00;89.29;98235.91;18564443;32;20456;-63
2022/11/01 13:34:29;;;;;;;2.62;0.62;;;;;;;15.91;88.80;98216.69;18564256;32;20436;-62
2022/11/01 13:45:14;;;;;;;1.77;0.80;;;;;;;15.58;91.43;98221.09;18549703;32;20079;-62
2022/11/01 13:55:42;;;;;;;3.95;1.20;;;;;;;15.49;91.18;98229.09;18221238;32;20479;-62
2022/11/01 14:06:10;;;;;;;2.47;0.80;;;;;;;15.68;89.22;98236.56;18231813;32;20082;-62
2022/11/01 14:16:13;;;;;;;3.87;1.00;;;;;;;15.87;90.27;98240.19;18219027;32;20082;-62
2022/11/01 14:26:20;;;;;;;2.17;1.10;;;;;;;15.95;87.03;98251.53;18331367;32;20057;-62
2022/11/01 14:36:27;;;;;;;2.05;0.70;;;;;;;15.75;89.22;98247.91;18560795;32;20155;-62
2022/11/01 14:46:36;;;;;;;2.97;1.00;;;;;;;15.26;94.11;98257.94;18533338;32;20075;-62
2022/11/01 14:56:54;;;;;;;2.70;0.70;;;;;;;15.15;93.50;98249.03;18560512;32;20055;-62
2022/11/01 15:06:59;;;;;;;3.12;0.80;;;;;;;15.05;94.54;98251.88;18526237;32;20374;-62
2022/11/01 15:17:02;;;;;;;3.90;1.00;;;;;;;15.05;93.66;98263.56;18555055;32;20056;-63
2022/11/01 15:27:12;;;;;;;2.33;0.63;;;;;;;15.19;93.72;98266.44;18571755;32;20083;-62
2022/11/01 15:37:20;;;;;;;5.20;0.90;;;;;;;15.19;92.87;98262.91;18571139;32;20048;-62
2022/11/01 15:47:27;;;;;;;2.67;0.60;;;;;;;14.99;92.06;98261.16;18570519;32;20053;-62
2022/11/01 15:57:32;;;;;;;3.50;0.88;;;;;;;14.72;92.14;98262.47;18569566;32;20049;-62
2022/11/01 16:07:35;;;;;;;1.58;0.52;;;;;;;14.13;96.13;98254.03;18568988;32;20060;-62
2022/11/01 16:17:41;;;;;;;3.87;0.40;;;;;;;13.46;100.00;98267.81;18404416;32;20065;-62
2022/11/01 16:28:25;;;;;;;3.03;0.90;;;;;;;12.90;100.00;98284.91;18416746;32;20168;-62
2022/11/01 16:38:40;;;;;;;3.03;0.95;;;;;;;12.47;100.00;98279.69;18415392;32;20091;-62
2022/11/01 16:48:57;;;;;;;4.50;0.70;;;;;;;12.07;100.00;98283.06;18461156;32;20065;-62
2022/11/01 16:59:35;;;;;;;4.47;0.77;;;;;;;11.64;100.00;98305.56;18566037;32;20402;-62
2022/11/01 17:09:38;;;;;;;5.87;0.80;;;;;;;11.26;100.00;98318.28;18565742;32;20079;-62
2022/11/01 17:19:45;;;;;;;2.97;0.80;;;;;;;10.95;100.00;98312.62;18565256;32;20463;-62
2022/11/01 17:29:50;;;;;;;1.60;0.68;;;;;;;10.68;100.00;98315.34;18550421;32;20049;-62
2022/11/01 17:39:53;;;;;;;3.45;1.20;;;;;;;10.43;100.00;98321.28;18563172;32;20086;-62
2022/11/01 17:49:56;;;;;;;2.97;1.17;;;;;;;10.21;100.00;98332.06;18563100;32;20053;-62
2022/11/01 17:59:59;;;;;;;1.93;0.77;;;;;;;9.96;100.00;98336.91;18483187;32;20391;-62
2022/11/01 18:10:13;;;;;;;3.63;0.90;;;;;;;9.83;100.00;98343.47;18496041;32;20049;-62
2022/11/01 18:20:57;;;;;;;3.23;1.00;;;;;;;9.67;100.00;98349.72;18496773;32;20401;-62
2022/11/01 18:31:10;;;;;;;3.83;1.20;;;;;;;9.51;100.00;98340.56;18496099;32;20049;-62
2022/11/01 18:41:21;;;;;;;4.00;0.80;;;;;;;9.34;100.00;98351.34;18486324;32;20385;-62
2022/11/01 18:51:27;;;;;;;3.50;0.90;;;;;;;9.16;100.00;98345.13;18494786;32;20073;-62
2022/11/01 19:01:31;;;;;;;4.13;1.10;;;;;;;9.01;100.00;98347.56;18499417;32;20061;-62
2022/11/01 19:11:34;;;;;;;1.70;0.77;;;;;;;8.92;100.00;98344.47;18499861;32;20100;-62
2022/11/01 19:21:37;;;;;;;0.50;0.33;;;;;;;8.77;100.00;98350.41;18507205;32;20049;-62
2022/11/01 19:31:43;;;;;;;1.70;0.70;;;;;;;8.63;100.00;98336.41;18506692;32;20092;-62
2022/11/01 19:41:46;;;;;;;1.40;0.60;;;;;;;8.51;100.00;98326.69;18506030;32;20091;-62
2022/11/01 19:52:23;;;;;;;1.90;1.10;;;;;;;8.36;100.00;98329.88;18507835;32;20101;-62
2022/11/01 20:02:26;;;;;;;3.90;1.80;;;;;;;8.26;100.00;98330.50;18566218;32;20067;-62
2022/11/01 20:12:30;;;;;;;2.97;1.90;;;;;;;8.20;100.00;98328.78;18569324;32;20065;-62
2022/11/01 20:22:34;;;;;;;5.47;2.00;;;;;;;8.21;100.00;98330.38;18568457;32;20055;-62
2022/11/01 20:32:36;;;;;;;3.10;1.80;;;;;;;8.10;100.00;98340.97;18553824;32;20075;-62
2022/11/01 20:42:39;;;;;;;4.23;2.37;;;;;;;8.07;100.00;98348.69;18552841;32;20437;-64
2022/11/01 20:52:42;;;;;;;4.80;2.10;;;;;;;7.87;100.00;98362.56;18566730;32;20073;-64
2022/11/01 21:02:46;;;;;;;6.93;2.20;;;;;;;7.80;100.00;98365.34;18538873;32;20049;-64
2022/11/01 21:12:50;;;;;;;7.03;2.70;;;;;;;7.70;100.00;98371.34;18564693;32;20049;-64
2022/11/01 21:23:01;;;;;;;2.43;1.60;;;;;;;7.62;100.00;98382.44;18564840;32;20067;-64
2022/11/01 21:33:32;;;;;;;3.00;1.57;;;;;;;7.55;100.00;98384.41;18557644;32;20417;-64
2022/11/01 21:43:35;;;;;;;4.93;2.10;;;;;;;7.52;100.00;98393.75;18563664;32;20154;-65
2022/11/01 21:53:38;;;;;;;2.50;1.67;;;;;;;7.39;100.00;98402.06;18548976;32;20053;-64
2022/11/01 22:03:41;;;;;;;3.87;1.77;;;;;;;7.31;100.00;98413.16;18562781;32;20472;-64
2022/11/01 22:13:45;;;;;;;7.73;2.20;;;;;;;7.28;100.00;98422.50;18562049;32;20143;-64
2022/11/01 22:23:49;;;;;;;4.67;1.70;;;;;;;7.17;100.00;98428.66;18560008;32;20041;-64
2022/11/01 22:33:52;;;;;;;2.97;1.50;;;;;;;7.09;100.00;98433.31;18556227;32;20060;-64
2022/11/01 22:43:58;;;;;;;2.03;1.50;;;;;;;6.97;100.00;98445.91;18546651;32;20056;-65
2022/11/01 22:54:06;;;;;;;3.13;1.57;;;;;;;6.95;100.00;98445.31;18546291;32;20061;-64
2022/11/01 23:04:19;;;;;;;2.90;1.60;;;;;;;7.10;100.00;98451.09;18560185;32;20052;-64
2022/11/01 23:24:58;;;;;;;1.77;1.40;;;;;;;7.71;100.00;98459.09;18293000;32;20160;-65
2022/11/01 23:35:21;;;;;;;2.03;1.27;;;;;;;7.88;100.00;98464.62;18298101;32;20062;-65
2022/11/01 23:45:28;;;;;;;2.23;1.30;;;;;;;8.09;100.00;98471.31;18291810;32;20163;-64
2022/11/01 23:55:36;;;;;;;3.47;1.40;;;;;;;8.36;100.00;98470.00;18382370;32;20448;-62
